createdAt,value
2018-08-23T00:00:43.869Z,82.80
2018-08-23T00:03:27.445Z,82.90
2018-08-23T00:05:57.040Z,82.90
2018-08-23T00:08:26.057Z,83.20
2018-08-23T00:10:55.209Z,83.50
2018-08-23T00:13:24.205Z,83.60
2018-08-23T00:15:53.225Z,83.60
2018-08-23T00:18:21.931Z,84.00
2018-08-23T00:20:50.673Z,84.40
2018-08-23T00:23:20.798Z,84.40
2018-08-23T00:25:49.589Z,84.50
2018-08-23T00:28:18.286Z,84.70
2018-08-23T00:30:47.269Z,84.80
2018-08-23T00:33:16.203Z,84.70
2018-08-23T00:35:45.025Z,85.00
2018-08-23T00:38:13.761Z,85.10
2018-08-23T00:40:44.761Z,85.30
2018-08-23T00:43:14.685Z,85.40
2018-08-23T00:45:43.789Z,85.90
2018-08-23T00:48:12.661Z,85.80
2018-08-23T00:50:49.809Z,85.90
2018-08-23T00:53:18.833Z,86.10
2018-08-23T00:55:47.737Z,86.20
2018-08-23T00:58:16.618Z,86.30
2018-08-23T01:00:54.857Z,86.40
2018-08-23T01:03:23.721Z,86.60
2018-08-23T01:05:52.488Z,86.40
2018-08-23T01:08:26.532Z,86.90
2018-08-23T01:10:55.352Z,86.70
2018-08-23T01:13:24.173Z,87.10
2018-08-23T01:15:52.961Z,87.30
2018-08-23T01:18:21.726Z,87.40
2018-08-23T01:20:51.794Z,87.30
2018-08-23T01:23:20.629Z,87.90
2018-08-23T01:25:50.004Z,87.60
2018-08-23T01:28:18.838Z,88.00
2018-08-23T01:30:48.367Z,88.20
2018-08-23T01:33:18.533Z,88.40
2018-08-23T01:35:48.380Z,88.40
2018-08-23T01:38:17.579Z,88.50
2018-08-23T01:40:46.284Z,88.90
2018-08-23T01:43:14.986Z,88.90
2018-08-23T01:45:43.733Z,89.10
2018-08-23T01:48:12.529Z,89.30
2018-08-23T01:50:41.325Z,89.30
2018-08-23T01:53:10.234Z,89.10
2018-08-23T01:55:39.042Z,89.50
2018-08-23T01:58:07.763Z,89.50
2018-08-23T02:00:36.774Z,89.80
2018-08-23T02:03:05.580Z,89.90
2018-08-23T02:05:37.590Z,90.10
2018-08-23T02:08:07.510Z,90.10
2018-08-23T02:10:36.341Z,90.20
2018-08-23T02:13:09.833Z,90.30
2018-08-23T02:15:50.150Z,90.50
2018-08-23T02:18:24.593Z,90.50
2018-08-23T02:20:58.305Z,90.50
2018-08-23T02:23:27.109Z,90.60
2018-08-23T02:25:55.914Z,90.70
2018-08-23T02:28:24.699Z,90.90
2018-08-23T02:30:55.321Z,91.00
2018-08-23T02:33:24.701Z,91.10
2018-08-23T02:36:22.221Z,91.10
2018-08-23T02:39:08.645Z,91.00
2018-08-23T02:41:37.424Z,91.00
2018-08-23T02:44:06.194Z,91.10
2018-08-23T02:46:34.914Z,91.10
2018-08-23T02:49:03.930Z,91.20
2018-08-23T02:51:40.333Z,91.30
2018-08-23T02:54:13.581Z,91.30
2018-08-23T02:56:47.858Z,91.40
2018-08-23T02:59:16.606Z,91.60
2018-08-23T03:01:46.494Z,91.70
2018-08-23T03:04:22.365Z,91.80
2018-08-23T03:06:51.820Z,91.80
2018-08-23T03:09:22.690Z,91.90
2018-08-23T03:11:53.617Z,92.00
2018-08-23T03:14:23.286Z,92.10
2018-08-23T03:17:25.297Z,92.00
2018-08-23T03:20:06.483Z,92.10
2018-08-23T03:22:35.460Z,92.20
2018-08-23T03:25:05.417Z,92.30
2018-08-23T03:27:34.364Z,92.30
2018-08-23T03:30:04.018Z,92.30
2018-08-23T03:32:32.804Z,92.30
2018-08-23T03:35:01.962Z,92.40
2018-08-23T03:37:30.733Z,92.50
2018-08-23T03:39:59.657Z,92.50
2018-08-23T03:42:28.746Z,92.50
2018-08-23T03:44:58.269Z,92.40
2018-08-23T03:47:27.694Z,92.50
2018-08-23T03:49:56.573Z,92.90
2018-08-23T03:52:30.613Z,93.10
2018-08-23T03:55:00.589Z,92.80
2018-08-23T03:57:34.878Z,93.10
2018-08-23T04:00:04.850Z,93.30
2018-08-23T04:02:33.555Z,93.40
2018-08-23T04:05:22.813Z,93.30
2018-08-23T04:07:51.561Z,93.30
2018-08-23T04:10:27.130Z,93.30
2018-08-23T04:12:55.841Z,93.30
2018-08-23T04:15:27.042Z,93.30
2018-08-23T04:17:55.778Z,93.30
2018-08-23T04:20:24.534Z,93.30
2018-08-23T04:22:53.461Z,93.40
2018-08-23T04:25:22.125Z,93.40
2018-08-23T04:27:50.910Z,93.60
2018-08-23T04:30:19.954Z,93.80
2018-08-23T04:32:49.366Z,93.90
2018-08-23T04:35:33.537Z,94.10
2018-08-23T04:38:02.452Z,94.20
2018-08-23T04:40:31.344Z,94.20
2018-08-23T04:42:59.985Z,94.20
2018-08-23T04:45:30.075Z,94.10
2018-08-23T04:48:05.946Z,94.40
2018-08-23T04:50:35.069Z,94.50
2018-08-23T04:53:03.848Z,94.60
2018-08-23T04:55:32.810Z,94.60
2018-08-23T04:58:02.389Z,94.80
2018-08-23T05:00:31.574Z,95.00
2018-08-23T05:03:00.333Z,94.70
2018-08-23T05:05:29.086Z,94.70
2018-08-23T05:07:57.845Z,94.80
2018-08-23T05:10:26.593Z,94.80
2018-08-23T05:12:55.310Z,94.60
2018-08-23T05:15:24.073Z,94.70
2018-08-23T05:17:52.774Z,94.90
2018-08-23T05:20:21.501Z,94.90
2018-08-23T05:22:57.490Z,94.70
2018-08-23T05:25:26.302Z,94.70
2018-08-23T05:28:17.105Z,94.80
2018-08-23T05:30:46.718Z,95.00
2018-08-23T05:33:17.520Z,95.00
2018-08-23T05:35:46.756Z,95.00
2018-08-23T05:38:16.125Z,95.10
2018-08-23T05:40:51.529Z,95.20
2018-08-23T05:43:20.431Z,94.90
2018-08-23T05:45:51.670Z,94.90
2018-08-23T05:48:26.738Z,94.80
2018-08-23T05:50:55.598Z,94.90
2018-08-23T05:53:24.336Z,94.80
2018-08-23T05:55:54.424Z,94.70
2018-08-23T05:58:32.791Z,94.70
2018-08-23T06:01:01.969Z,95.10
2018-08-23T06:03:30.837Z,94.70
2018-08-23T06:05:59.717Z,94.20
2018-08-23T06:08:34.873Z,94.50
2018-08-23T06:11:07.562Z,94.70
2018-08-23T06:13:38.930Z,94.60
2018-08-23T06:16:07.633Z,94.60
2018-08-23T06:18:36.749Z,94.60
2018-08-23T06:21:05.532Z,94.50
2018-08-23T06:23:57.545Z,94.50
2018-08-23T06:26:43.299Z,94.80
2018-08-23T06:29:18.683Z,94.50
2018-08-23T06:32:08.454Z,94.50
2018-08-23T06:34:52.673Z,94.60
2018-08-23T06:37:33.239Z,94.70
2018-08-23T06:40:07.141Z,94.70
2018-08-23T06:42:45.417Z,94.70
2018-08-23T06:45:20.305Z,94.70
2018-08-23T06:47:53.617Z,95.10
2018-08-23T06:50:44.169Z,94.80
2018-08-23T06:53:13.033Z,94.50
2018-08-23T06:55:47.552Z,94.50
2018-08-23T06:58:23.584Z,94.50
2018-08-23T07:00:58.341Z,94.50
2018-08-23T07:03:27.146Z,94.30
2018-08-23T07:06:03.541Z,94.40
2018-08-23T07:08:32.322Z,94.50
2018-08-23T07:11:05.013Z,94.30
2018-08-23T07:13:33.720Z,94.30
2018-08-23T07:16:02.479Z,94.20
2018-08-23T07:18:31.452Z,94.10
2018-08-23T07:21:00.182Z,94.60
2018-08-23T07:23:30.693Z,94.20
2018-08-23T07:25:59.401Z,94.30
2018-08-23T07:28:36.341Z,94.50
2018-08-23T07:31:17.501Z,94.10
2018-08-23T07:33:52.105Z,94.00
2018-08-23T07:36:30.961Z,93.60
2018-08-23T07:38:59.729Z,93.50
2018-08-23T07:41:28.538Z,93.40
2018-08-23T07:43:57.277Z,93.20
2018-08-23T07:46:47.242Z,93.40
2018-08-23T07:49:19.807Z,93.50
2018-08-23T07:51:48.502Z,93.10
2018-08-23T07:54:18.362Z,93.00
2018-08-23T07:56:47.370Z,93.30
2018-08-23T07:59:16.253Z,93.10
2018-08-23T08:01:47.114Z,93.00
2018-08-23T08:04:15.856Z,93.00
2018-08-23T08:06:44.659Z,92.50
2018-08-23T08:09:13.418Z,92.50
2018-08-23T08:11:48.938Z,92.70
2018-08-23T08:14:29.689Z,92.50
2018-08-23T08:17:07.189Z,92.30
2018-08-23T08:19:37.777Z,92.00
2018-08-23T08:22:06.677Z,92.10
2018-08-23T08:24:35.389Z,92.10
2018-08-23T08:27:04.216Z,91.80
2018-08-23T08:29:39.218Z,91.60
2018-08-23T08:32:14.678Z,91.40
2018-08-23T08:34:44.635Z,91.10
2018-08-23T08:37:13.514Z,90.90
2018-08-23T08:39:42.420Z,91.00
2018-08-23T08:42:19.054Z,90.60
2018-08-23T08:44:47.909Z,90.50
2018-08-23T08:47:16.765Z,90.40
2018-08-23T08:49:45.549Z,90.60
2018-08-23T08:52:14.225Z,90.00
2018-08-23T08:54:45.445Z,89.10
2018-08-23T08:57:16.741Z,88.80
2018-08-23T08:59:47.908Z,88.40
2018-08-23T09:02:18.940Z,88.00
2018-08-23T09:04:54.462Z,88.40
2018-08-23T09:07:26.976Z,88.30
2018-08-23T09:10:06.056Z,88.50
2018-08-23T09:12:39.109Z,87.70
2018-08-23T09:15:07.817Z,87.70
2018-08-23T09:17:43.098Z,86.90
2018-08-23T09:20:18.969Z,87.30
2018-08-23T09:22:53.062Z,87.80
2018-08-23T09:25:26.819Z,86.10
2018-08-23T09:27:55.606Z,87.30
2018-08-23T09:30:29.527Z,87.20
2018-08-23T09:33:02.672Z,86.10
2018-08-23T09:35:33.268Z,85.60
2018-08-23T09:38:12.753Z,86.70
2018-08-23T09:40:41.774Z,87.00
2018-08-23T09:43:10.590Z,87.00
2018-08-23T09:45:40.026Z,87.30
2018-08-23T09:48:09.940Z,86.10
2018-08-23T09:50:38.823Z,85.70
2018-08-23T09:53:13.039Z,84.80
2018-08-23T09:55:42.075Z,84.70
2018-08-23T09:58:16.225Z,84.30
2018-08-23T10:00:50.541Z,82.20
2018-08-23T10:03:24.590Z,83.30
2018-08-23T10:05:59.068Z,82.10
2018-08-23T10:08:42.118Z,82.70
2018-08-23T10:11:19.711Z,82.40
2018-08-23T10:14:03.821Z,81.10
2018-08-23T10:17:40.452Z,78.90
2018-08-23T10:20:14.636Z,78.30
2018-08-23T10:25:44.813Z,78.20
2018-08-23T10:28:15.525Z,79.70
2018-08-23T10:30:44.645Z,78.50
2018-08-23T10:33:20.025Z,77.30
2018-08-23T10:35:52.038Z,77.30
2018-08-23T10:38:22.191Z,76.00
2018-08-23T10:40:53.319Z,76.40
2018-08-23T10:43:27.422Z,76.00
2018-08-23T10:46:00.601Z,76.00
2018-08-23T10:48:29.365Z,74.80
2018-08-23T10:50:58.276Z,74.60
2018-08-23T10:53:37.085Z,76.60
2018-08-23T10:56:05.977Z,75.30
2018-08-23T10:58:34.877Z,75.80
2018-08-23T11:01:03.726Z,74.20
2018-08-23T11:03:37.713Z,74.00
2018-08-23T11:06:06.605Z,74.20
2018-08-23T11:08:36.838Z,74.40
2018-08-23T11:11:11.174Z,71.70
2018-08-23T11:13:46.697Z,71.10
2018-08-23T11:16:20.782Z,72.40
2018-08-23T11:19:06.728Z,71.20
2018-08-23T11:21:35.465Z,69.20
2018-08-23T11:24:04.257Z,69.10
2018-08-23T11:26:44.241Z,69.50
2018-08-23T11:29:14.375Z,70.00
2018-08-23T11:31:43.165Z,70.10
2018-08-23T11:34:12.202Z,70.50
2018-08-23T11:36:44.983Z,67.40
2018-08-23T11:39:13.798Z,68.00
2018-08-23T11:41:42.562Z,64.80
2018-08-23T11:44:20.389Z,62.80
2018-08-23T11:46:49.241Z,64.10
2018-08-23T11:49:24.497Z,64.90
2018-08-23T11:52:04.343Z,63.50
2018-08-23T11:54:33.154Z,60.50
2018-08-23T11:57:04.593Z,61.30
2018-08-23T11:59:33.319Z,60.10
2018-08-23T12:02:02.127Z,60.00
2018-08-23T12:04:30.925Z,58.60
2018-08-23T12:07:06.318Z,58.80
2018-08-23T12:09:35.158Z,57.60
2018-08-23T12:12:04.629Z,58.50
2018-08-23T12:14:33.364Z,57.60
2018-08-23T12:17:02.523Z,58.80
2018-08-23T12:19:31.294Z,58.90
2018-08-23T12:22:09.001Z,60.50
2018-08-23T12:24:37.833Z,60.20
2018-08-23T12:27:06.620Z,59.90
2018-08-23T12:29:35.407Z,57.10
2018-08-23T12:32:04.209Z,59.50
2018-08-23T12:34:35.339Z,58.30
2018-08-23T12:37:09.578Z,56.80
2018-08-23T12:39:43.687Z,58.00
2018-08-23T12:42:17.665Z,56.90
2018-08-23T12:44:52.482Z,58.10
2018-08-23T12:47:21.337Z,58.50
2018-08-23T12:49:50.586Z,58.00
2018-08-23T12:52:25.993Z,58.60
2018-08-23T12:54:54.941Z,58.60
2018-08-23T12:57:23.845Z,59.30
2018-08-23T12:59:52.596Z,59.20
2018-08-23T13:02:21.500Z,58.70
2018-08-23T13:04:50.157Z,58.10
2018-08-23T13:07:32.149Z,57.60
2018-08-23T13:10:00.950Z,56.80
2018-08-23T13:12:29.773Z,57.60
2018-08-23T13:15:04.183Z,57.00
2018-08-23T13:17:32.952Z,56.50
2018-08-23T13:20:01.605Z,57.10
2018-08-23T13:22:35.646Z,55.90
2018-08-23T13:25:04.489Z,56.50
2018-08-23T13:27:33.676Z,56.70
2018-08-23T13:30:02.866Z,57.10
2018-08-23T13:32:34.285Z,56.60
2018-08-23T13:35:03.130Z,56.90
2018-08-23T13:37:31.954Z,57.60
2018-08-23T13:40:00.877Z,57.00
2018-08-23T13:42:29.814Z,55.60
2018-08-23T13:44:58.595Z,55.80
2018-08-23T13:47:31.357Z,54.90
2018-08-23T13:50:00.218Z,55.10
2018-08-23T13:52:29.034Z,55.10
2018-08-23T13:54:57.852Z,54.40
2018-08-23T13:57:26.606Z,55.00
2018-08-23T13:59:55.381Z,55.70
2018-08-23T14:02:24.313Z,55.40
2018-08-23T14:04:53.097Z,54.40
2018-08-23T14:07:21.939Z,53.50
2018-08-23T14:09:50.705Z,53.80
2018-08-23T14:12:19.640Z,53.70
2018-08-23T14:14:48.385Z,52.90
2018-08-23T14:17:17.149Z,53.30
2018-08-23T14:19:45.942Z,52.20
2018-08-23T14:22:14.862Z,52.60
2018-08-23T14:24:43.681Z,52.60
2018-08-23T14:27:12.453Z,52.20
2018-08-23T14:29:41.205Z,52.40
2018-08-23T14:32:11.093Z,52.20
2018-08-23T14:34:39.901Z,52.90
2018-08-23T14:37:08.609Z,51.90
2018-08-23T14:39:37.389Z,52.10
2018-08-23T14:42:06.161Z,52.50
2018-08-23T14:44:39.130Z,52.90
2018-08-23T14:47:13.483Z,53.20
2018-08-23T14:49:42.381Z,51.40
2018-08-23T14:52:11.213Z,51.70
2018-08-23T14:54:41.996Z,51.90
2018-08-23T14:57:16.133Z,51.20
2018-08-23T14:59:45.209Z,51.60
2018-08-23T15:02:14.046Z,52.00
2018-08-23T15:04:48.837Z,52.40
2018-08-23T15:07:17.957Z,50.70
2018-08-23T15:09:58.737Z,50.80
2018-08-23T15:12:27.511Z,49.50
2018-08-23T15:14:56.546Z,49.00
2018-08-23T15:17:25.422Z,50.00
2018-08-23T15:20:01.084Z,49.40
2018-08-23T15:22:30.180Z,48.10
2018-08-23T15:24:58.993Z,45.50
2018-08-23T15:27:32.502Z,43.60
2018-08-23T15:30:02.402Z,44.30
2018-08-23T15:32:31.193Z,43.30
2018-08-23T15:35:00.089Z,40.00
2018-08-23T15:37:28.906Z,33.40
2018-08-23T15:39:57.641Z,33.70
2018-08-23T15:42:26.523Z,33.90
2018-08-23T15:44:55.334Z,32.70
2018-08-23T15:47:24.526Z,33.70
2018-08-23T15:49:54.170Z,35.20
2018-08-23T15:52:23.014Z,36.20
2018-08-23T15:54:51.821Z,37.50
2018-08-23T15:57:20.513Z,38.20
2018-08-23T15:59:49.232Z,38.30
2018-08-23T16:02:17.913Z,39.20
2018-08-23T16:04:46.702Z,39.50
2018-08-23T16:07:15.488Z,40.30
2018-08-23T16:09:45.306Z,40.70
2018-08-23T16:12:14.113Z,40.90
2018-08-23T16:14:43.295Z,40.80
2018-08-23T16:17:17.298Z,40.80
2018-08-23T16:19:51.635Z,41.60
2018-08-23T16:22:24.658Z,41.60
2018-08-23T16:24:53.542Z,42.10
2018-08-23T16:27:22.370Z,42.40
2018-08-23T16:29:52.261Z,41.80
2018-08-23T16:32:29.773Z,42.20
2018-08-23T16:34:58.569Z,42.60
2018-08-23T16:37:27.516Z,42.60
2018-08-23T16:39:56.509Z,42.40
2018-08-23T16:42:35.280Z,42.60
2018-08-23T16:45:04.070Z,42.60
2018-08-23T16:47:32.853Z,42.80
2018-08-23T16:50:01.666Z,43.30
2018-08-23T16:52:30.474Z,43.50
2018-08-23T16:54:59.262Z,43.40
2018-08-23T16:57:28.062Z,42.60
2018-08-23T16:59:56.944Z,42.60
2018-08-23T17:02:32.619Z,42.10
2018-08-23T17:05:01.357Z,42.90
2018-08-23T17:07:30.285Z,42.40
2018-08-23T17:10:10.252Z,41.40
2018-08-23T17:12:38.971Z,40.80
2018-08-23T17:15:15.321Z,38.90
2018-08-23T17:17:48.253Z,38.80
2018-08-23T17:20:24.675Z,39.50
2018-08-23T17:22:53.441Z,39.80
2018-08-23T17:25:22.246Z,38.90
2018-08-23T17:27:52.041Z,38.20
2018-08-23T17:30:28.503Z,38.10
2018-08-23T17:32:57.215Z,38.80
2018-08-23T17:35:25.984Z,38.90
2018-08-23T17:37:56.820Z,39.40
2018-08-23T17:40:25.673Z,41.00
2018-08-23T17:42:54.501Z,42.00
2018-08-23T17:45:23.457Z,42.00
2018-08-23T17:47:52.290Z,41.90
2018-08-23T17:50:21.282Z,41.50
2018-08-23T17:52:50.302Z,41.10
2018-08-23T17:55:19.323Z,41.00
2018-08-23T17:57:48.273Z,41.40
2018-08-23T18:00:17.109Z,41.80
2018-08-23T18:02:45.942Z,42.90
2018-08-23T18:05:14.849Z,44.10
2018-08-23T18:07:43.652Z,45.80
2018-08-23T18:10:12.486Z,47.60
2018-08-23T18:12:41.390Z,48.70
2018-08-23T18:15:10.503Z,49.00
2018-08-23T18:17:40.231Z,49.80
2018-08-23T18:20:09.385Z,51.60
2018-08-23T18:22:38.395Z,52.20
2018-08-23T18:25:14.678Z,53.00
2018-08-23T18:27:43.361Z,54.00
2018-08-23T18:30:12.263Z,54.80
2018-08-23T18:32:41.058Z,54.70
2018-08-23T18:35:10.030Z,55.60
2018-08-23T18:37:38.927Z,55.10
2018-08-23T18:40:07.918Z,55.80
2018-08-23T18:42:36.627Z,55.10
2018-08-23T18:45:05.542Z,55.80
2018-08-23T18:50:29.433Z,56.60
2018-08-23T18:53:02.881Z,57.20
2018-08-23T18:55:31.629Z,57.50
2018-08-23T18:58:17.185Z,57.70
2018-08-23T19:00:46.095Z,58.90
2018-08-23T19:03:14.794Z,59.90
2018-08-23T19:05:56.160Z,60.70
2018-08-23T19:08:24.913Z,60.80
2018-08-23T19:10:53.808Z,60.10
2018-08-23T19:13:22.887Z,59.60
2018-08-23T19:15:57.106Z,60.10
2018-08-23T19:18:26.025Z,61.60
2018-08-23T19:20:55.030Z,62.20
2018-08-23T19:23:23.853Z,62.60
2018-08-23T19:25:52.690Z,61.40
2018-08-23T19:28:21.629Z,62.20
2018-08-23T19:30:51.147Z,62.50
2018-08-23T19:33:20.076Z,62.70
2018-08-23T19:35:48.967Z,63.80
2018-08-23T19:38:17.811Z,64.50
2018-08-23T19:40:54.314Z,64.80
2018-08-23T19:43:23.150Z,64.90
2018-08-23T19:45:57.154Z,65.40
2018-08-23T19:48:25.997Z,65.20
2018-08-23T19:50:54.770Z,65.40
2018-08-23T19:53:23.598Z,66.00
2018-08-23T19:55:52.533Z,66.10
2018-08-23T19:58:21.232Z,65.20
2018-08-23T20:00:59.105Z,64.60
2018-08-23T20:03:27.992Z,64.30
2018-08-23T20:05:56.690Z,64.90
2018-08-23T20:08:25.708Z,64.70
2018-08-23T20:10:54.551Z,67.30
2018-08-23T20:13:23.360Z,69.40
2018-08-23T20:15:52.124Z,70.60
2018-08-23T20:18:20.858Z,71.00
2018-08-23T20:20:49.746Z,70.90
2018-08-23T20:23:18.462Z,70.40
2018-08-23T20:25:47.158Z,71.50
2018-08-23T20:28:16.202Z,73.60
2018-08-23T20:30:44.906Z,74.50
2018-08-23T20:33:13.717Z,76.20
2018-08-23T20:35:46.259Z,73.20
2018-08-23T20:38:16.091Z,72.60
2018-08-23T20:40:45.843Z,73.80
2018-08-23T20:43:18.293Z,73.70
2018-08-23T20:45:52.583Z,72.30
2018-08-23T20:48:21.433Z,72.20
2018-08-23T20:50:50.555Z,74.20
2018-08-23T20:53:19.420Z,72.80
2018-08-23T20:55:48.280Z,72.80
2018-08-23T20:58:17.107Z,74.60
2018-08-23T21:00:45.911Z,75.10
2018-08-23T21:03:14.777Z,75.60
2018-08-23T21:05:52.107Z,76.90
2018-08-23T21:11:22.552Z,76.30
2018-08-23T21:13:51.379Z,77.50
2018-08-23T21:16:21.533Z,78.40
2018-08-23T21:18:50.334Z,76.90
2018-08-23T21:21:27.453Z,76.90
2018-08-23T21:23:58.066Z,77.80
2018-08-23T21:26:27.283Z,78.30
2018-08-23T21:28:56.271Z,78.80
2018-08-23T21:31:25.129Z,79.10
2018-08-23T21:33:54.040Z,79.90
2018-08-23T21:36:22.860Z,79.30
2018-08-23T21:38:51.810Z,81.10
2018-08-23T21:41:20.658Z,80.20
2018-08-23T21:43:49.567Z,80.20
2018-08-23T21:46:29.016Z,81.30
2018-08-23T21:49:05.652Z,81.70
2018-08-23T21:51:43.045Z,81.40
2018-08-23T21:54:11.857Z,82.10
2018-08-23T21:56:40.749Z,82.30
2018-08-23T21:59:09.568Z,81.60
2018-08-23T22:01:38.427Z,83.40
2018-08-23T22:04:11.205Z,83.80
2018-08-23T22:06:40.210Z,82.80
2018-08-23T22:09:09.245Z,83.90
2018-08-23T22:11:37.985Z,84.50
2018-08-23T22:14:06.830Z,84.10
2018-08-23T22:16:35.518Z,84.80
2018-08-23T22:19:04.365Z,85.30
2018-08-23T22:21:33.193Z,86.00
2018-08-23T22:24:01.967Z,86.60
2018-08-23T22:26:30.866Z,86.40
2018-08-23T22:28:59.767Z,85.50
2018-08-23T22:31:28.553Z,87.40
2018-08-23T22:33:57.423Z,86.60
2018-08-23T22:36:30.962Z,87.90
2018-08-23T22:38:59.797Z,88.10
2018-08-23T22:41:37.351Z,89.20
2018-08-23T22:44:06.540Z,89.00
2018-08-23T22:46:35.487Z,90.00
2018-08-23T22:49:05.142Z,89.00
2018-08-23T22:51:34.109Z,90.30
2018-08-23T22:54:02.841Z,90.00
2018-08-23T22:56:31.771Z,89.50
2018-08-23T22:59:08.329Z,89.80
2018-08-23T23:01:37.237Z,90.20
2018-08-23T23:04:11.493Z,90.00
2018-08-23T23:06:40.426Z,90.20
2018-08-23T23:09:13.425Z,90.60
2018-08-23T23:11:42.722Z,90.40
2018-08-23T23:14:11.889Z,90.60
2018-08-23T23:16:55.414Z,90.60
2018-08-23T23:19:32.665Z,90.80
2018-08-23T23:22:08.747Z,90.80
2018-08-23T23:24:51.958Z,90.80
2018-08-23T23:27:20.737Z,90.70
2018-08-23T23:29:49.801Z,90.80
2018-08-23T23:32:18.663Z,91.20
2018-08-23T23:34:53.474Z,91.00
2018-08-23T23:37:22.641Z,91.40
2018-08-23T23:39:51.802Z,91.20
2018-08-23T23:42:20.615Z,91.40
2018-08-23T23:44:49.397Z,91.80
2018-08-23T23:47:25.801Z,91.70
2018-08-23T23:49:54.760Z,91.60
2018-08-23T23:52:23.608Z,91.70
2018-08-23T23:54:52.474Z,91.80
2018-08-23T23:57:21.305Z,91.30
2018-08-23T23:59:50.151Z,91.50
